VOBG Airport Information

Runway Information
Runway 09 Length 10850 ft width 200 ft
Elevation 2874 ft Threshold 0 ft Heading 85
Runway 27 Length 10850 ft Width 200 ft
Elevation 2893 ft Threshold 0 ft Heading 265
Airport Frequencies
Type APP Name APP Frequency 127.7 MHZ
Type ATIS Name ATIS Frequency 128.25 MHZ
Type TWR Name TWR Frequency 123.5 MHZ
Airport Navaids
Type VOR-DME Name Bangalore Frequency 115500 KHZ
Type NDB Name Bangalore Frequency 363 KHZ
Airport Weather Information & NOTAM
ADDS - METARS form results

(0910 UTC 26 February 2021)
Data provider http://aviationweather.gov/metar/data/
 
METAR text: VOBG 260900Z 02004KT 8000 NSC 33/05 Q1012 NOSIG
Conditions at: VOBG (BANGALORE ARP , IN) observed 0900 UTC 26 February 2021
Temperature: 33.0°C (91°F)
Dewpoint: 5.0°C (41°F) [RH = 17%]
Pressure (altimeter): 29.88 inches Hg (1012.0 mb)
Winds: from the NNE (20 degrees) at 5 MPH (4 knots; 2.1 m/s)
Visibility: 5 miles ( 8 km)
Ceiling: at least 12,000 feet AGL
Clouds: sky clear below 12,000 feet AGL
Weather: no significant weather observed at this time

METAR text: VOBG 260830Z 02004KT 8000 NSC 33/06 Q1013 NOSIG
Conditions at: VOBG (BANGALORE ARP , IN) observed 0830 UTC 26 February 2021
Temperature: 33.0°C (91°F)
Dewpoint: 6.0°C (43°F) [RH = 19%]
Pressure (altimeter): 29.91 inches Hg (1013.0 mb)
Winds: from the NNE (20 degrees) at 5 MPH (4 knots; 2.1 m/s)
Visibility: 5 miles ( 8 km)
Ceiling: at least 12,000 feet AGL
Clouds: sky clear below 12,000 feet AGL
Weather: no significant weather observed at this time

Forecast for: VOBG (BANGALORE ARP , IN)
Text: TAF VOBG 260800Z 2609/2618 09010KT 8000 FEW015
Forecast period: 0900 to 1800 UTC 26 February 2021
Forecast type: FROM: standard forecast or significant change
Winds: from the E (90 degrees) at 12 MPH (10 knots; 5.1 m/s)
Visibility: 5 miles (8 km)
Ceiling: at least 12,000 feet AGL
Clouds: few clouds at 1500 feet AGL
Weather: no significant weather forecast for this period